createdAt,value
2018-03-03T00:01:17.023Z,79.73
2018-03-03T00:04:20.194Z,82.40
2018-03-03T00:07:23.406Z,80.10
2018-03-03T00:10:26.638Z,81.73
2018-03-03T00:13:29.778Z,82.57
2018-03-03T00:16:32.936Z,80.43
2018-03-03T00:19:36.089Z,85.93
2018-03-03T00:22:42.113Z,83.40
2018-03-03T00:25:45.378Z,80.03
2018-03-03T00:28:48.547Z,82.27
2018-03-03T00:31:51.715Z,77.03
2018-03-03T00:34:55.011Z,76.03
2018-03-03T00:37:58.267Z,77.20
2018-03-03T00:41:01.424Z,82.93
2018-03-03T00:44:04.627Z,80.40
2018-03-03T00:47:07.785Z,83.53
2018-03-03T00:50:10.927Z,78.57
2018-03-03T00:53:14.114Z,86.13
2018-03-03T00:56:17.305Z,81.30
2018-03-03T00:59:21.183Z,78.93
2018-03-03T01:02:24.322Z,85.83
2018-03-03T01:05:27.704Z,77.67
2018-03-03T01:08:30.919Z,83.57
2018-03-03T01:11:34.115Z,81.00
2018-03-03T01:14:37.306Z,87.00
2018-03-03T01:17:40.521Z,82.43
2018-03-03T01:20:43.700Z,84.97
2018-03-03T01:23:46.872Z,84.97
2018-03-03T01:26:50.801Z,83.33
2018-03-03T01:29:53.956Z,75.85
2018-03-03T01:32:57.258Z,80.37
2018-03-03T01:36:00.477Z,84.40
2018-03-03T01:42:41.243Z,87.27
2018-03-03T01:45:44.507Z,84.03
2018-03-03T01:48:47.775Z,81.97
2018-03-03T01:51:52.333Z,84.10
2018-03-03T01:54:55.473Z,83.97
2018-03-03T01:57:58.636Z,89.30
2018-03-03T02:01:01.851Z,89.33
2018-03-03T02:04:05.039Z,85.33
2018-03-03T02:07:08.265Z,87.87
2018-03-03T02:10:11.451Z,84.03
2018-03-03T02:13:14.642Z,91.07
2018-03-03T02:16:17.829Z,84.63
2018-03-03T02:19:21.630Z,80.33
2018-03-03T02:22:24.825Z,89.73
2018-03-03T02:29:05.653Z,84.97
2018-03-03T02:32:19.334Z,91.28
2018-03-03T02:35:22.532Z,89.17
2018-03-03T02:38:25.769Z,84.97
2018-03-03T02:41:29.027Z,95.10
2018-03-03T02:44:32.258Z,91.78
2018-03-03T02:47:35.402Z,92.43
2018-03-03T02:50:38.592Z,87.70
2018-03-03T02:53:41.801Z,92.08
2018-03-03T02:56:44.997Z,89.85
2018-03-03T02:59:48.191Z,97.15
2018-03-03T03:02:51.390Z,94.70
2018-03-03T03:05:55.588Z,100.18
2018-03-03T03:08:58.818Z,102.65
2018-03-03T03:12:02.069Z,95.95
2018-03-03T03:15:05.306Z,104.10
2018-03-03T03:18:08.514Z,105.63
2018-03-03T03:21:11.708Z,107.63
2018-03-03T03:24:14.924Z,104.17
2018-03-03T03:27:18.105Z,104.05
2018-03-03T03:30:21.284Z,109.48
2018-03-03T03:33:24.527Z,102.47
2018-03-03T03:36:27.726Z,102.53
2018-03-03T03:39:30.906Z,95.43
2018-03-03T03:42:35.178Z,97.73
2018-03-03T03:45:38.312Z,100.97
2018-03-03T03:48:41.496Z,96.30
2018-03-03T03:51:44.725Z,101.13
2018-03-03T03:54:47.898Z,99.93
2018-03-03T03:57:51.103Z,95.40
2018-03-03T04:00:54.526Z,99.07
2018-03-03T04:03:57.746Z,91.77
2018-03-03T04:07:00.892Z,99.63
2018-03-03T04:10:05.146Z,100.43
2018-03-03T04:13:08.305Z,98.47
2018-03-03T04:16:11.506Z,97.27
2018-03-03T04:19:14.718Z,99.37
2018-03-03T04:22:17.891Z,99.10
2018-03-03T04:25:21.059Z,105.33
2018-03-03T04:28:24.199Z,99.07
2018-03-03T04:31:27.390Z,102.80
2018-03-03T04:34:30.593Z,98.53
2018-03-03T04:37:34.806Z,105.07
2018-03-03T04:40:37.998Z,101.60
2018-03-03T04:43:41.162Z,93.67
2018-03-03T04:46:44.485Z,98.23
2018-03-03T04:49:47.621Z,102.90
2018-03-03T04:52:50.844Z,106.40
2018-03-03T04:55:53.979Z,107.33
2018-03-03T04:58:57.177Z,107.63
2018-03-03T05:02:00.376Z,109.47
2018-03-03T05:05:03.770Z,101.20
2018-03-03T05:08:06.958Z,110.93
2018-03-03T05:14:40.904Z,108.77
2018-03-03T05:17:44.209Z,106.10
2018-03-03T05:20:48.942Z,106.80
2018-03-03T05:23:54.279Z,106.97
2018-03-03T05:26:58.410Z,102.20
2018-03-03T05:30:02.404Z,102.50
2018-03-03T05:33:05.721Z,98.03
2018-03-03T05:36:09.722Z,104.80
2018-03-03T05:39:13.227Z,110.37
2018-03-03T05:42:17.525Z,114.83
2018-03-03T05:45:24.572Z,104.07
2018-03-03T05:48:28.363Z,110.23
2018-03-03T05:51:31.745Z,115.97
2018-03-03T05:54:35.035Z,113.80
2018-03-03T05:57:39.167Z,108.83
2018-03-03T06:00:42.329Z,108.47
2018-03-03T06:03:45.972Z,102.93
2018-03-03T06:06:49.223Z,113.37
2018-03-03T06:09:52.445Z,109.37
2018-03-03T06:12:55.618Z,107.13
2018-03-03T06:15:58.839Z,104.13
2018-03-03T06:19:01.989Z,104.10
2018-03-03T06:22:05.175Z,112.53
2018-03-03T06:25:08.372Z,108.33
2018-03-03T06:28:11.547Z,119.37
2018-03-03T06:31:14.687Z,124.70
2018-03-03T06:34:18.801Z,108.63
2018-03-03T06:37:21.977Z,115.60
2018-03-03T06:40:25.185Z,116.17
2018-03-03T06:47:06.348Z,116.82
2018-03-03T06:50:09.495Z,113.80
2018-03-03T06:53:12.683Z,113.03
2018-03-03T06:56:16.099Z,115.08
2018-03-03T06:59:19.262Z,109.17
2018-03-03T07:02:22.464Z,111.47
2018-03-03T07:05:25.759Z,101.40
2018-03-03T07:08:29.003Z,104.07
2018-03-03T07:11:32.185Z,113.90
2018-03-03T07:14:35.395Z,109.90
2018-03-03T07:17:38.602Z,107.63
2018-03-03T07:20:41.840Z,111.50
2018-03-03T07:23:45.070Z,109.27
2018-03-03T07:26:48.255Z,99.57
2018-03-03T07:29:51.616Z,106.73
2018-03-03T07:32:55.050Z,100.27
2018-03-03T07:35:58.877Z,106.27
2018-03-03T07:39:02.066Z,105.33
2018-03-03T07:42:05.238Z,105.27
2018-03-03T07:45:08.514Z,109.83
2018-03-03T07:48:11.659Z,107.77
2018-03-03T07:51:14.803Z,104.37
2018-03-03T07:54:18.007Z,111.37
2018-03-03T07:57:21.355Z,92.37
2018-03-03T08:00:24.729Z,100.77
2018-03-03T08:03:27.904Z,103.90
2018-03-03T08:06:31.057Z,103.13
2018-03-03T08:09:34.231Z,113.10
2018-03-03T08:12:37.424Z,113.57
2018-03-03T08:15:40.638Z,111.30
2018-03-03T08:22:14.554Z,108.70
2018-03-03T08:25:18.880Z,92.03
2018-03-03T08:28:22.033Z,114.57
2018-03-03T08:31:25.230Z,114.27
2018-03-03T08:34:28.409Z,104.97
2018-03-03T08:37:31.657Z,109.57
2018-03-03T08:40:34.812Z,121.70
2018-03-03T08:43:37.991Z,112.30
2018-03-03T08:46:41.195Z,105.97
2018-03-03T08:49:44.399Z,112.27
2018-03-03T08:52:47.581Z,103.13
2018-03-03T08:55:50.778Z,102.40
2018-03-03T08:58:53.915Z,107.00
2018-03-03T09:01:57.058Z,107.53
2018-03-03T09:05:00.357Z,100.20
2018-03-03T09:08:03.547Z,100.97
2018-03-03T09:11:06.693Z,81.83
2018-03-03T09:14:09.839Z,89.17
2018-03-03T09:17:13.030Z,95.70
2018-03-03T09:20:16.276Z,90.73
2018-03-03T09:23:19.757Z,82.20
2018-03-03T09:26:22.949Z,93.10
2018-03-03T09:29:26.084Z,86.00
2018-03-03T09:32:29.221Z,86.93
2018-03-03T09:35:32.424Z,86.03
2018-03-03T09:38:35.626Z,86.90
2018-03-03T09:41:38.838Z,94.77
2018-03-03T09:44:42.082Z,85.50
2018-03-03T09:47:45.315Z,84.20
2018-03-03T09:50:48.546Z,80.37
2018-03-03T09:53:51.837Z,78.37
2018-03-03T09:56:54.990Z,79.53
2018-03-03T09:59:58.188Z,78.03
2018-03-03T10:03:01.394Z,74.77
2018-03-03T10:06:04.590Z,85.67
2018-03-03T10:09:07.775Z,85.97
2018-03-03T10:12:10.971Z,90.70
2018-03-03T10:15:14.184Z,84.43
2018-03-03T10:18:17.534Z,92.57
2018-03-03T10:21:20.738Z,88.37
2018-03-03T10:24:23.960Z,93.77
2018-03-03T10:27:27.199Z,86.47
2018-03-03T10:30:30.367Z,81.33
2018-03-03T10:33:33.634Z,84.70
2018-03-03T10:40:15.032Z,86.80
2018-03-03T10:43:18.240Z,86.37
2018-03-03T10:49:59.067Z,84.57
2018-03-03T10:53:02.298Z,80.80
2018-03-03T10:59:43.390Z,76.20
2018-03-03T11:02:46.611Z,70.30
2018-03-03T11:05:49.861Z,78.50
2018-03-03T11:08:53.007Z,73.33
2018-03-03T11:11:56.197Z,70.83
2018-03-03T11:14:59.342Z,71.43
2018-03-03T11:18:02.485Z,71.87
2018-03-03T11:21:05.663Z,71.37
2018-03-03T11:24:08.806Z,74.70
2018-03-03T11:30:50.163Z,68.00
2018-03-03T11:33:54.258Z,67.50
2018-03-03T11:36:57.430Z,72.23
2018-03-03T11:40:00.645Z,70.67
2018-03-03T11:43:03.819Z,69.40
2018-03-03T11:46:07.034Z,69.72
2018-03-03T11:49:10.269Z,70.37
2018-03-03T11:52:13.468Z,76.75
2018-03-03T11:55:16.610Z,75.95
2018-03-03T11:58:19.824Z,73.22
2018-03-03T12:01:24.073Z,71.07
2018-03-03T12:04:27.219Z,68.37
2018-03-03T12:07:30.396Z,72.80
2018-03-03T12:10:33.689Z,71.35
2018-03-03T12:13:36.954Z,72.53
2018-03-03T12:16:40.295Z,68.40
2018-03-03T12:19:43.554Z,71.07
2018-03-03T12:22:46.708Z,73.57
2018-03-03T12:25:49.869Z,75.70
2018-03-03T12:28:53.071Z,72.70
2018-03-03T12:31:56.243Z,70.87
2018-03-03T12:34:59.506Z,72.82
2018-03-03T12:38:02.721Z,70.07
2018-03-03T12:41:06.390Z,68.37
2018-03-03T12:44:09.531Z,76.23
2018-03-03T12:47:12.896Z,77.33
2018-03-03T12:50:16.159Z,74.97
2018-03-03T12:53:19.297Z,73.17
2018-03-03T12:56:22.678Z,76.70
2018-03-03T12:59:25.967Z,77.67
2018-03-03T13:02:30.194Z,73.30
2018-03-03T13:05:33.593Z,75.80
2018-03-03T13:08:36.835Z,75.93
2018-03-03T13:11:39.995Z,76.90
2018-03-03T13:14:43.370Z,76.40
2018-03-03T13:17:46.637Z,78.40
2018-03-03T13:20:49.824Z,70.60
2018-03-03T13:23:52.970Z,76.40
2018-03-03T13:26:56.262Z,74.70
2018-03-03T13:29:59.432Z,74.73
2018-03-03T13:33:02.724Z,72.47
2018-03-03T13:36:06.051Z,76.57
2018-03-03T13:39:09.319Z,72.47
2018-03-03T13:42:12.493Z,79.23
2018-03-03T13:45:15.660Z,76.57
2018-03-03T13:48:18.876Z,75.67
2018-03-03T13:51:22.036Z,77.33
2018-03-03T13:54:25.297Z,75.27
2018-03-03T13:57:28.465Z,71.13
2018-03-03T14:00:31.681Z,73.13
2018-03-03T14:03:34.836Z,74.05
2018-03-03T14:06:38.071Z,71.42
2018-03-03T14:09:41.259Z,82.80
2018-03-03T14:12:44.477Z,92.63
2018-03-03T14:15:47.631Z,88.00
2018-03-03T14:18:50.982Z,80.00
2018-03-03T14:21:55.237Z,86.35
2018-03-03T14:24:58.494Z,81.75
2018-03-03T14:28:01.664Z,86.30
2018-03-03T14:31:05.066Z,87.30
2018-03-03T14:34:08.289Z,86.23
2018-03-03T14:37:11.570Z,89.13
2018-03-03T14:40:14.899Z,94.13
2018-03-03T14:43:18.104Z,83.23
2018-03-03T14:46:21.765Z,84.03
2018-03-03T14:49:24.967Z,90.27
2018-03-03T14:52:28.182Z,86.73
2018-03-03T14:55:31.766Z,88.00
2018-03-03T14:58:34.983Z,90.60
2018-03-03T15:01:38.166Z,85.77
2018-03-03T15:04:41.337Z,89.93
2018-03-03T15:07:44.856Z,89.07
2018-03-03T15:10:48.770Z,87.20
2018-03-03T15:13:51.980Z,88.10
2018-03-03T15:16:55.740Z,91.80
2018-03-03T15:19:59.043Z,88.67
2018-03-03T15:23:02.311Z,86.57
2018-03-03T15:26:05.616Z,90.07
2018-03-03T15:29:08.889Z,73.72
2018-03-03T15:32:12.232Z,74.47
2018-03-03T15:35:15.547Z,75.57
2018-03-03T15:38:18.790Z,79.13
2018-03-03T15:41:22.145Z,73.63
2018-03-03T15:44:25.474Z,68.37
2018-03-03T15:47:29.269Z,74.37
2018-03-03T15:50:32.530Z,73.37
2018-03-03T15:53:35.826Z,71.47
2018-03-03T15:56:39.159Z,74.53
2018-03-03T15:59:42.324Z,74.17
2018-03-03T16:02:45.588Z,71.20
2018-03-03T16:05:48.849Z,80.07
2018-03-03T16:08:52.052Z,77.93
2018-03-03T16:11:55.379Z,77.43
2018-03-03T16:14:58.854Z,73.10
2018-03-03T16:18:02.263Z,75.43
2018-03-03T16:21:05.603Z,76.90
2018-03-03T16:24:08.903Z,84.37
2018-03-03T16:27:12.468Z,80.87
2018-03-03T16:30:15.832Z,81.40
2018-03-03T16:33:19.258Z,76.70
2018-03-03T16:36:22.535Z,83.57
2018-03-03T16:39:25.863Z,78.13
2018-03-03T16:42:29.385Z,83.27
2018-03-03T16:45:32.698Z,75.63
2018-03-03T16:48:35.964Z,81.33
2018-03-03T16:51:39.358Z,81.37
2018-03-03T16:54:42.777Z,83.07
2018-03-03T16:57:46.106Z,81.57
2018-03-03T17:00:49.470Z,82.03
2018-03-03T17:03:52.696Z,82.60
2018-03-03T17:06:55.929Z,84.90
2018-03-03T17:09:59.235Z,80.83
2018-03-03T17:13:02.536Z,87.47
2018-03-03T17:16:05.974Z,84.03
2018-03-03T17:19:09.097Z,80.43
2018-03-03T17:22:12.342Z,81.17
2018-03-03T17:25:15.614Z,82.13
2018-03-03T17:28:18.974Z,80.97
2018-03-03T17:31:22.268Z,79.77
2018-03-03T17:34:25.562Z,80.17
2018-03-03T17:37:28.848Z,82.83
2018-03-03T17:40:32.139Z,78.27
2018-03-03T17:43:35.341Z,87.07
2018-03-03T17:46:38.577Z,81.83
2018-03-03T17:49:41.755Z,83.83
2018-03-03T17:52:45.014Z,79.63
2018-03-03T17:55:49.330Z,82.77
2018-03-03T17:58:52.631Z,83.67
2018-03-03T18:01:55.938Z,80.30
2018-03-03T18:04:59.118Z,82.53
2018-03-03T18:08:02.329Z,83.77
2018-03-03T18:11:06.439Z,84.20
2018-03-03T18:14:09.636Z,74.17
2018-03-03T18:17:13.933Z,83.70
2018-03-03T18:20:17.643Z,80.93
2018-03-03T18:23:21.208Z,93.87
2018-03-03T18:26:25.336Z,85.30
2018-03-03T18:29:28.714Z,88.87
2018-03-03T18:32:32.026Z,82.00
2018-03-03T18:35:35.297Z,85.00
2018-03-03T18:38:38.702Z,84.00
2018-03-03T18:41:42.067Z,85.47
2018-03-03T18:44:45.385Z,81.70
2018-03-03T18:47:48.614Z,91.40
2018-03-03T18:50:51.878Z,92.53
2018-03-03T18:53:55.198Z,81.17
2018-03-03T18:56:58.704Z,97.90
2018-03-03T19:00:01.996Z,92.40
2018-03-03T19:03:05.291Z,91.50
2018-03-03T19:06:09.425Z,90.40
2018-03-03T19:09:12.699Z,83.90
2018-03-03T19:12:15.993Z,94.67
2018-03-03T19:15:19.223Z,89.63
2018-03-03T19:18:22.499Z,90.57
2018-03-03T19:21:26.784Z,92.03
2018-03-03T19:24:30.041Z,90.03
2018-03-03T19:27:33.330Z,92.90
2018-03-03T19:30:37.459Z,97.05
2018-03-03T19:33:40.762Z,96.80
2018-03-03T19:36:44.783Z,98.33
2018-03-03T19:39:48.027Z,94.00
2018-03-03T19:42:51.367Z,93.47
2018-03-03T19:45:54.618Z,97.77
2018-03-03T19:48:57.959Z,101.90
2018-03-03T19:52:01.265Z,96.43
2018-03-03T19:55:05.030Z,100.17
2018-03-03T19:58:08.404Z,97.23
2018-03-03T20:01:11.880Z,96.83
2018-03-03T20:04:15.939Z,96.57
2018-03-03T20:07:19.232Z,97.27
2018-03-03T20:10:22.727Z,102.10
2018-03-03T20:13:25.982Z,105.10
2018-03-03T20:16:29.278Z,103.43
2018-03-03T20:19:32.510Z,103.73
2018-03-03T20:22:35.778Z,104.57
2018-03-03T20:25:38.940Z,101.53
2018-03-03T20:28:42.363Z,94.45
2018-03-03T20:31:45.731Z,105.70
2018-03-03T20:34:48.915Z,97.97
2018-03-03T20:37:52.278Z,100.03
2018-03-03T20:40:55.561Z,89.03
2018-03-03T20:43:58.866Z,88.07
2018-03-03T20:47:02.165Z,94.37
2018-03-03T20:50:05.423Z,97.17
2018-03-03T20:53:10.114Z,101.93
2018-03-03T20:56:13.368Z,102.00
2018-03-03T20:59:16.693Z,100.77
2018-03-03T21:02:19.964Z,94.60
2018-03-03T21:05:23.189Z,93.77
2018-03-03T21:08:26.441Z,101.07
2018-03-03T21:11:29.736Z,96.43
2018-03-03T21:14:33.045Z,102.23
2018-03-03T21:17:36.729Z,96.67
2018-03-03T21:20:40.113Z,99.17
2018-03-03T21:23:43.304Z,100.77
2018-03-03T21:26:56.407Z,101.13
2018-03-03T21:29:59.596Z,93.50
2018-03-03T21:33:03.726Z,105.93
2018-03-03T21:36:06.874Z,111.47
2018-03-03T21:39:11.033Z,101.23
2018-03-03T21:42:14.233Z,98.17
2018-03-03T21:45:17.386Z,99.20
2018-03-03T21:48:20.541Z,106.03
2018-03-03T21:51:23.792Z,106.43
2018-03-03T21:54:28.955Z,102.03
2018-03-03T21:57:32.180Z,110.50
2018-03-03T22:00:35.284Z,102.77
2018-03-03T22:03:39.463Z,105.53
2018-03-03T22:06:50.344Z,101.93
2018-03-03T22:09:54.692Z,108.40
2018-03-03T22:12:58.881Z,107.33
2018-03-03T22:16:02.103Z,100.87
2018-03-03T22:19:06.266Z,112.20
2018-03-03T22:22:11.408Z,106.73
2018-03-03T22:25:24.207Z,111.20
2018-03-03T22:28:27.392Z,98.27
2018-03-03T22:31:31.538Z,110.50
2018-03-03T22:34:35.672Z,113.33
2018-03-03T22:37:38.832Z,102.17
2018-03-03T22:40:51.706Z,116.37
2018-03-03T22:43:55.510Z,101.23
2018-03-03T22:46:58.729Z,102.90
2018-03-03T22:50:02.896Z,101.47
2018-03-03T22:53:06.184Z,110.97
2018-03-03T22:56:09.364Z,96.43
2018-03-03T22:59:14.519Z,107.37
2018-03-03T23:02:23.251Z,97.83
2018-03-03T23:05:26.439Z,101.80
2018-03-03T23:08:31.580Z,108.07
2018-03-03T23:11:36.737Z,105.17
2018-03-03T23:14:46.442Z,103.02
2018-03-03T23:17:49.641Z,104.78
2018-03-03T23:20:53.807Z,105.10
2018-03-03T23:23:57.856Z,102.77
2018-03-03T23:27:01.039Z,99.10
2018-03-03T23:30:04.460Z,108.07
2018-03-03T23:33:09.726Z,115.40
2018-03-03T23:36:15.968Z,104.67
2018-03-03T23:39:20.126Z,104.80
2018-03-03T23:42:23.261Z,107.37
2018-03-03T23:45:26.464Z,102.17
2018-03-03T23:48:31.644Z,103.03
2018-03-03T23:51:36.821Z,94.07
2018-03-03T23:54:40.040Z,101.43
2018-03-03T23:57:44.194Z,102.23
